createdAt,value
2018-07-05T00:00:15.134Z,0
2018-07-05T00:01:15.401Z,0
2018-07-05T00:02:15.642Z,0
2018-07-05T00:03:15.657Z,0
2018-07-05T00:04:15.410Z,0
2018-07-05T00:05:15.411Z,0
2018-07-05T00:06:15.647Z,0
2018-07-05T00:07:15.675Z,0
2018-07-05T00:08:15.927Z,0
2018-07-05T00:09:15.925Z,0
2018-07-05T00:10:15.684Z,0
2018-07-05T00:11:15.660Z,0
2018-07-05T00:12:15.420Z,0
2018-07-05T00:13:15.181Z,0
2018-07-05T00:14:15.421Z,0
2018-07-05T00:15:15.677Z,0
2018-07-05T00:16:15.676Z,0
2018-07-05T00:17:15.918Z,0
2018-07-05T00:18:15.440Z,0
2018-07-05T00:19:15.444Z,0
2018-07-05T00:20:15.696Z,0
2018-07-05T00:21:15.675Z,0
2018-07-05T00:22:15.429Z,0
2018-07-05T00:23:15.696Z,0
2018-07-05T00:24:15.951Z,0
2018-07-05T00:25:15.436Z,0
2018-07-05T00:26:15.457Z,0
2018-07-05T00:27:15.711Z,0
2018-07-05T00:28:15.956Z,0
2018-07-05T00:29:15.471Z,0
2018-07-05T00:30:15.954Z,0
2018-07-05T00:31:15.954Z,0
2018-07-05T00:32:15.960Z,0
2018-07-05T00:33:15.518Z,0
2018-07-05T00:34:15.479Z,0
2018-07-05T00:35:15.978Z,0
2018-07-05T00:36:15.473Z,0
2018-07-05T00:37:15.711Z,0
2018-07-05T00:38:15.719Z,0
2018-07-05T00:39:15.466Z,0
2018-07-05T00:40:15.734Z,0
2018-07-05T00:41:15.741Z,0
2018-07-05T00:42:15.540Z,0
2018-07-05T00:43:15.732Z,0
2018-07-05T00:44:17.342Z,0
2018-07-05T00:45:15.737Z,0
2018-07-05T00:46:15.755Z,0
2018-07-05T00:47:15.985Z,0
2018-07-05T00:48:15.985Z,0
2018-07-05T00:49:16.205Z,0
2018-07-05T00:50:15.759Z,0
2018-07-05T00:51:15.485Z,0
2018-07-05T00:52:15.989Z,0
2018-07-05T00:53:15.769Z,0
2018-07-05T00:54:15.768Z,0
2018-07-05T00:55:15.756Z,0
2018-07-05T00:56:15.757Z,0
2018-07-05T00:57:15.493Z,0
2018-07-05T00:58:15.787Z,0
2018-07-05T00:59:15.745Z,0
2018-07-05T01:00:16.004Z,0
2018-07-05T01:01:15.782Z,0
2018-07-05T01:02:15.512Z,0
2018-07-05T01:03:16.016Z,0
2018-07-05T01:04:15.514Z,0
2018-07-05T01:05:15.758Z,0
2018-07-05T01:06:15.510Z,0
2018-07-05T01:07:15.769Z,0
2018-07-05T01:08:16.028Z,0
2018-07-05T01:09:15.791Z,0
2018-07-05T01:10:16.598Z,0
2018-07-05T01:11:16.018Z,0
2018-07-05T01:12:15.530Z,0
2018-07-05T01:13:15.527Z,0
2018-07-05T01:14:15.552Z,0
2018-07-05T01:15:16.314Z,0
2018-07-05T01:16:15.283Z,0
2018-07-05T01:17:15.538Z,0
2018-07-05T01:18:15.312Z,0
2018-07-05T01:19:15.794Z,0
2018-07-05T01:20:15.803Z,0
2018-07-05T01:21:15.314Z,0
2018-07-05T01:22:16.045Z,0
2018-07-05T01:23:16.064Z,0
2018-07-05T01:24:15.560Z,0
2018-07-05T01:25:15.817Z,0
2018-07-05T01:26:15.798Z,0
2018-07-05T01:27:15.806Z,0
2018-07-05T01:28:15.804Z,0
2018-07-05T01:29:15.571Z,0
2018-07-05T01:30:15.560Z,0
2018-07-05T01:31:15.829Z,0
2018-07-05T01:32:16.073Z,0
2018-07-05T01:33:15.562Z,0
2018-07-05T01:34:16.075Z,0
2018-07-05T01:35:15.606Z,0
2018-07-05T01:36:15.822Z,0
2018-07-05T01:37:15.569Z,0
2018-07-05T01:38:15.823Z,0
2018-07-05T01:39:15.590Z,0
2018-07-05T01:40:16.096Z,0
2018-07-05T01:41:15.826Z,0
2018-07-05T01:42:15.825Z,0
2018-07-05T01:43:15.340Z,0
2018-07-05T01:44:15.573Z,0
2018-07-05T01:45:15.828Z,0
2018-07-05T01:46:15.837Z,0
2018-07-05T01:47:16.190Z,0
2018-07-05T01:48:15.578Z,0
2018-07-05T01:49:15.838Z,0
2018-07-05T01:50:15.835Z,0
2018-07-05T01:51:16.094Z,0
2018-07-05T01:52:16.111Z,0
2018-07-05T01:53:15.597Z,0
2018-07-05T01:54:15.601Z,0
2018-07-05T01:55:15.627Z,0
2018-07-05T01:56:15.611Z,0
2018-07-05T01:57:15.864Z,0
2018-07-05T01:58:16.096Z,0
2018-07-05T01:59:15.898Z,0
2018-07-05T02:00:15.365Z,0
2018-07-05T02:01:15.616Z,0
2018-07-05T02:02:16.104Z,0
2018-07-05T02:03:16.105Z,0
2018-07-05T02:04:15.872Z,0
2018-07-05T02:05:16.108Z,0
2018-07-05T02:06:16.115Z,0
2018-07-05T02:07:15.361Z,0
2018-07-05T02:08:16.123Z,0
2018-07-05T02:09:15.855Z,0
2018-07-05T02:10:16.133Z,0
2018-07-05T02:11:16.104Z,0
2018-07-05T02:12:15.861Z,0
2018-07-05T02:13:15.859Z,0
2018-07-05T02:14:15.625Z,0
2018-07-05T02:15:15.614Z,0
2018-07-05T02:16:16.976Z,0
2018-07-05T02:17:15.892Z,0
2018-07-05T02:18:15.624Z,0
2018-07-05T02:19:15.619Z,0
2018-07-05T02:20:15.875Z,0
2018-07-05T02:21:15.625Z,0
2018-07-05T02:22:15.891Z,0
2018-07-05T02:23:15.631Z,0
2018-07-05T02:24:15.645Z,0
2018-07-05T02:25:15.630Z,0
2018-07-05T02:26:15.662Z,0
2018-07-05T02:27:15.633Z,0
2018-07-05T02:28:15.882Z,0
2018-07-05T02:29:15.894Z,0
2018-07-05T02:30:15.898Z,0
2018-07-05T02:31:16.151Z,0
2018-07-05T02:32:15.404Z,0
2018-07-05T02:33:15.897Z,0
2018-07-05T02:34:16.181Z,0
2018-07-05T02:35:15.910Z,0
2018-07-05T02:36:15.656Z,0
2018-07-05T02:37:15.913Z,0
2018-07-05T02:38:16.177Z,4
2018-07-05T02:39:16.174Z,4
2018-07-05T02:40:15.426Z,0
2018-07-05T02:41:15.664Z,0
2018-07-05T02:42:15.917Z,0
2018-07-05T02:43:15.706Z,0
2018-07-05T02:44:15.912Z,4
2018-07-05T02:45:16.178Z,4
2018-07-05T02:46:15.678Z,0
2018-07-05T02:47:16.220Z,4
2018-07-05T02:48:15.955Z,4
2018-07-05T02:49:16.182Z,4
2018-07-05T02:50:15.955Z,4
2018-07-05T02:51:15.945Z,8
2018-07-05T02:52:15.928Z,4
2018-07-05T02:53:16.173Z,8
2018-07-05T02:54:15.933Z,8
2018-07-05T02:55:15.924Z,4
2018-07-05T02:56:15.946Z,8
2018-07-05T02:57:15.935Z,8
2018-07-05T02:58:15.699Z,8
2018-07-05T02:59:15.947Z,12
2018-07-05T03:00:16.194Z,12
2018-07-05T03:01:16.188Z,16
2018-07-05T03:02:15.686Z,16
2018-07-05T03:03:15.965Z,20
2018-07-05T03:04:15.693Z,24
2018-07-05T03:05:16.195Z,24
2018-07-05T03:06:15.972Z,28
2018-07-05T03:07:15.949Z,36
2018-07-05T03:08:16.231Z,44
2018-07-05T03:09:15.953Z,44
2018-07-05T03:10:15.716Z,52
2018-07-05T03:11:15.689Z,60
2018-07-05T03:12:15.953Z,64
2018-07-05T03:13:15.947Z,72
2018-07-05T03:14:16.034Z,80
2018-07-05T03:15:15.979Z,88
2018-07-05T03:16:15.971Z,100
2018-07-05T03:17:16.063Z,112
2018-07-05T03:18:15.961Z,124
2018-07-05T03:19:15.997Z,136
2018-07-05T03:20:16.207Z,152
2018-07-05T03:21:15.704Z,160
2018-07-05T03:22:15.979Z,172
2018-07-05T03:23:15.979Z,184
2018-07-05T03:24:15.706Z,204
2018-07-05T03:25:15.975Z,224
2018-07-05T03:26:15.955Z,244
2018-07-05T03:27:15.971Z,264
2018-07-05T03:28:15.704Z,288
2018-07-05T03:29:15.726Z,312
2018-07-05T03:30:16.250Z,336
2018-07-05T03:31:16.226Z,364
2018-07-05T03:32:16.227Z,392
2018-07-05T03:33:15.968Z,420
2018-07-05T03:34:15.970Z,448
2018-07-05T03:35:15.985Z,480
2018-07-05T03:36:16.240Z,508
2018-07-05T03:37:16.233Z,540
2018-07-05T03:38:15.989Z,576
2018-07-05T03:39:16.002Z,620
2018-07-05T03:40:15.997Z,660
2018-07-05T03:41:15.974Z,704
2018-07-05T03:42:15.987Z,748
2018-07-05T03:43:15.991Z,800
2018-07-05T03:44:15.971Z,864
2018-07-05T03:45:15.731Z,920
2018-07-05T03:46:15.746Z,980
2018-07-05T03:47:15.735Z,1048
2018-07-05T03:48:16.024Z,1116
2018-07-05T03:49:16.285Z,1184
2018-07-05T03:50:15.992Z,1256
2018-07-05T03:51:16.000Z,1336
2018-07-05T03:52:15.758Z,1424
2018-07-05T03:53:15.990Z,1512
2018-07-05T03:54:15.741Z,1600
2018-07-05T03:55:16.011Z,1684
2018-07-05T03:56:15.991Z,1752
2018-07-05T03:57:16.248Z,1876
2018-07-05T03:58:16.017Z,2056
2018-07-05T03:59:16.002Z,2280
2018-07-05T04:00:15.990Z,2468
2018-07-05T04:01:15.747Z,2616
2018-07-05T04:02:16.003Z,2716
2018-07-05T04:03:16.244Z,2820
2018-07-05T04:04:15.767Z,2792
2018-07-05T04:05:15.984Z,2756
2018-07-05T04:06:16.270Z,2696
2018-07-05T04:07:16.265Z,2608
2018-07-05T04:08:16.079Z,2604
2018-07-05T04:09:16.006Z,2644
2018-07-05T04:10:16.025Z,2684
2018-07-05T04:11:16.268Z,2712
2018-07-05T04:12:15.760Z,2748
2018-07-05T04:13:16.269Z,2880
2018-07-05T04:14:16.026Z,2896
2018-07-05T04:15:16.288Z,2812
2018-07-05T04:16:16.182Z,2760
2018-07-05T04:17:16.046Z,2744
2018-07-05T04:18:16.304Z,2744
2018-07-05T04:19:16.298Z,2688
2018-07-05T04:20:16.292Z,2700
2018-07-05T04:21:16.303Z,2704
2018-07-05T04:22:16.057Z,2744
2018-07-05T04:23:16.301Z,2980
2018-07-05T04:24:16.460Z,2944
2018-07-05T04:25:16.076Z,2700
2018-07-05T04:26:16.041Z,2680
2018-07-05T04:27:16.056Z,2560
2018-07-05T04:28:16.050Z,2504
2018-07-05T04:29:15.801Z,2700
2018-07-05T04:30:15.799Z,2820
2018-07-05T04:31:16.064Z,2992
2018-07-05T04:32:16.054Z,3084
2018-07-05T04:33:16.050Z,3160
2018-07-05T04:34:16.582Z,2968
2018-07-05T04:35:16.059Z,2992
2018-07-05T04:36:16.348Z,3432
2018-07-05T04:37:16.060Z,3468
2018-07-05T04:38:16.053Z,3688
2018-07-05T04:39:16.088Z,3440
2018-07-05T04:40:16.089Z,3924
2018-07-05T04:41:16.320Z,4220
2018-07-05T04:42:15.839Z,4396
2018-07-05T04:43:16.342Z,4368
2018-07-05T04:44:16.360Z,4676
2018-07-05T04:45:16.094Z,4844
2018-07-05T04:46:16.519Z,4616
2018-07-05T04:47:16.357Z,4400
2018-07-05T04:48:16.353Z,2084
2018-07-05T04:49:16.370Z,1948
2018-07-05T04:50:16.365Z,2008
2018-07-05T04:51:16.108Z,2076
2018-07-05T04:52:16.348Z,2124
2018-07-05T04:53:15.869Z,2164
2018-07-05T04:54:16.387Z,2220
2018-07-05T04:55:16.114Z,2280
2018-07-05T04:56:16.407Z,2336
2018-07-05T04:57:16.386Z,2376
2018-07-05T04:58:16.115Z,2388
2018-07-05T04:59:16.391Z,2380
2018-07-05T05:00:16.139Z,2364
2018-07-05T05:01:15.888Z,2328
2018-07-05T05:02:16.147Z,2284
2018-07-05T05:03:16.399Z,2240
2018-07-05T05:04:16.165Z,2192
2018-07-05T05:05:16.164Z,2140
2018-07-05T05:06:15.655Z,2084
2018-07-05T05:07:15.914Z,2040
2018-07-05T05:08:16.420Z,2004
2018-07-05T05:09:16.180Z,1992
2018-07-05T05:10:16.154Z,1992
2018-07-05T05:11:16.195Z,1992
2018-07-05T05:12:16.429Z,1956
2018-07-05T05:13:16.444Z,1900
2018-07-05T05:14:16.172Z,1836
2018-07-05T05:15:16.452Z,1772
2018-07-05T05:16:16.691Z,1692
2018-07-05T05:17:16.466Z,1616
2018-07-05T05:18:15.943Z,1564
2018-07-05T05:19:16.458Z,1504
2018-07-05T05:20:16.448Z,1456
2018-07-05T05:21:15.934Z,1420
2018-07-05T05:22:15.941Z,1388
2018-07-05T05:23:16.207Z,1360
2018-07-05T05:24:16.647Z,1336
2018-07-05T05:25:16.458Z,1316
2018-07-05T05:26:16.462Z,1300
2018-07-05T05:27:16.457Z,1288
2018-07-05T05:28:16.223Z,1288
2018-07-05T05:29:16.475Z,1288
2018-07-05T05:30:16.205Z,1296
2018-07-05T05:31:16.222Z,1304
2018-07-05T05:32:16.220Z,1312
2018-07-05T05:33:15.977Z,1328
2018-07-05T05:34:15.991Z,1360
2018-07-05T05:35:16.237Z,1396
2018-07-05T05:36:16.498Z,1440
2018-07-05T05:37:15.731Z,1488
2018-07-05T05:38:16.240Z,1528
2018-07-05T05:39:15.997Z,1580
2018-07-05T05:40:16.489Z,1636
2018-07-05T05:41:16.502Z,1708
2018-07-05T05:42:16.250Z,1808
2018-07-05T05:43:16.511Z,1920
2018-07-05T05:44:16.492Z,2040
2018-07-05T05:45:16.247Z,2180
2018-07-05T05:46:16.241Z,2356
2018-07-05T05:47:18.007Z,2572
2018-07-05T05:48:16.855Z,2792
2018-07-05T05:49:16.251Z,2996
2018-07-05T05:50:16.257Z,3176
2018-07-05T05:51:16.256Z,3340
2018-07-05T05:52:16.510Z,3500
2018-07-05T05:53:16.024Z,3648
2018-07-05T05:54:16.561Z,3776
2018-07-05T05:55:16.524Z,3904
2018-07-05T05:56:16.524Z,4020
2018-07-05T05:57:16.514Z,4132
2018-07-05T05:58:16.008Z,4252
2018-07-05T05:59:16.273Z,4324
2018-07-05T06:00:16.016Z,4372
2018-07-05T06:01:16.562Z,4432
2018-07-05T06:02:16.291Z,4548
2018-07-05T06:03:16.027Z,4672
2018-07-05T06:04:16.534Z,4796
2018-07-05T06:05:16.049Z,4924
2018-07-05T06:06:16.587Z,5064
2018-07-05T06:07:16.323Z,5188
2018-07-05T06:08:16.431Z,5244
2018-07-05T06:09:16.564Z,5232
2018-07-05T06:10:16.318Z,5324
2018-07-05T06:11:16.309Z,5444
2018-07-05T06:12:16.070Z,5552
2018-07-05T06:13:16.084Z,5656
2018-07-05T06:14:16.318Z,5744
2018-07-05T06:24:34.170Z,6104
2018-07-05T06:25:34.312Z,6152
2018-07-05T06:26:33.917Z,6224
2018-07-05T06:27:34.172Z,6344
2018-07-05T06:28:34.195Z,6456
2018-07-05T06:29:34.172Z,6548
2018-07-05T06:30:33.925Z,6612
2018-07-05T06:31:33.959Z,6664
2018-07-05T06:32:33.703Z,6712
2018-07-05T06:33:33.694Z,6784
2018-07-05T06:34:34.207Z,6848
2018-07-05T06:35:34.245Z,6928
2018-07-05T06:36:34.223Z,7040
2018-07-05T06:37:34.199Z,7160
2018-07-05T06:38:33.977Z,7356
2018-07-05T06:39:34.070Z,7820
2018-07-05T06:40:33.975Z,7976
2018-07-05T06:41:33.959Z,8212
2018-07-05T06:42:34.226Z,8172
2018-07-05T06:43:34.222Z,8040
2018-07-05T06:44:33.721Z,8168
2018-07-05T06:45:33.977Z,8384
2018-07-05T06:46:33.979Z,8700
2018-07-05T06:47:34.584Z,9012
2018-07-05T06:48:33.982Z,8924
2018-07-05T06:49:33.783Z,9108
2018-07-05T06:50:34.020Z,9404
2018-07-05T06:51:34.023Z,9596
2018-07-05T06:52:34.255Z,9552
2018-07-05T06:53:34.251Z,11568
2018-07-05T06:54:34.258Z,15776
2018-07-05T06:55:34.277Z,11788
2018-07-05T06:56:34.284Z,15136
2018-07-05T06:57:34.148Z,14852
2018-07-05T06:58:34.021Z,10568
2018-07-05T06:59:33.775Z,10600
2018-07-05T07:00:34.035Z,10684
2018-07-05T07:01:34.032Z,10740
2018-07-05T07:02:34.067Z,10360
2018-07-05T07:03:34.058Z,9680
2018-07-05T07:04:34.069Z,9548
2018-07-05T07:05:34.055Z,9672
2018-07-05T07:06:34.314Z,9904
2018-07-05T07:07:34.114Z,9880
2018-07-05T07:08:34.332Z,9700
2018-07-05T07:09:33.829Z,9120
2018-07-05T07:10:34.416Z,8752
2018-07-05T07:11:34.345Z,8480
2018-07-05T07:12:33.841Z,8140
2018-07-05T07:13:34.368Z,7928
2018-07-05T07:14:33.851Z,7888
2018-07-05T07:15:34.367Z,7904
2018-07-05T07:16:34.124Z,7952
2018-07-05T07:17:33.868Z,8100
2018-07-05T07:18:34.400Z,8300
2018-07-05T07:19:34.385Z,8572
2018-07-05T07:20:34.146Z,8960
2018-07-05T07:21:34.607Z,9592
2018-07-05T07:22:34.405Z,11356
2018-07-05T07:23:34.404Z,14952
2018-07-05T07:24:34.157Z,16640
2018-07-05T07:25:34.169Z,15500
2018-07-05T07:26:34.161Z,13352
2018-07-05T07:27:34.181Z,10696
2018-07-05T07:28:34.180Z,10456
2018-07-05T07:29:34.185Z,10344
2018-07-05T07:30:34.459Z,10296
2018-07-05T07:31:34.608Z,10248
2018-07-05T07:32:34.195Z,9920
2018-07-05T07:33:34.451Z,9624
2018-07-05T07:34:34.460Z,9312
2018-07-05T07:35:34.221Z,8980
2018-07-05T07:36:34.218Z,8712
2018-07-05T07:37:34.523Z,8536
2018-07-05T07:38:33.977Z,8420
2018-07-05T07:39:33.983Z,8372
2018-07-05T07:40:34.492Z,8324
2018-07-05T07:41:33.998Z,8320
2018-07-05T07:42:34.255Z,8300
2018-07-05T07:43:34.260Z,8276
2018-07-05T07:44:34.510Z,8192
2018-07-05T07:45:35.075Z,8100
2018-07-05T07:46:34.270Z,8024
2018-07-05T07:47:34.280Z,7948
2018-07-05T07:48:34.274Z,7896
2018-07-05T07:49:34.285Z,7836
2018-07-05T07:50:34.046Z,7784
2018-07-05T07:51:34.041Z,7724
2018-07-05T07:52:34.310Z,7668
2018-07-05T07:53:34.565Z,7652
2018-07-05T07:54:33.801Z,7684
2018-07-05T07:55:34.411Z,7728
2018-07-05T07:56:34.588Z,7772
2018-07-05T07:57:34.804Z,7812
2018-07-05T07:58:34.326Z,7872
2018-07-05T07:59:34.327Z,7956
2018-07-05T08:00:34.350Z,8080
2018-07-05T08:01:34.594Z,8212
2018-07-05T08:02:34.610Z,8324
2018-07-05T08:03:34.362Z,8424
2018-07-05T08:04:34.619Z,8500
2018-07-05T08:05:34.406Z,8544
2018-07-05T08:06:34.376Z,8572
2018-07-05T08:07:34.634Z,8568
2018-07-05T08:08:33.872Z,8524
2018-07-05T08:09:34.142Z,8432
2018-07-05T08:10:34.652Z,8332
2018-07-05T08:11:34.399Z,8200
2018-07-05T08:12:34.651Z,8032
2018-07-05T08:13:34.398Z,7864
2018-07-05T08:14:34.665Z,7732
2018-07-05T08:15:34.412Z,7620
2018-07-05T08:16:34.172Z,7516
2018-07-05T08:17:34.424Z,7392
2018-07-05T08:18:34.450Z,7304
2018-07-05T08:19:34.455Z,7216
2018-07-05T08:20:34.053Z,7168
2018-07-05T08:21:34.174Z,7124
2018-07-05T08:22:34.207Z,7100
2018-07-05T08:23:34.449Z,7076
2018-07-05T08:24:34.193Z,7048
2018-07-05T08:25:34.459Z,7020
2018-07-05T08:26:33.948Z,6996
2018-07-05T08:27:34.212Z,6960
2018-07-05T08:28:34.741Z,6928
2018-07-05T08:29:34.742Z,6896
2018-07-05T08:30:34.481Z,6884
2018-07-05T08:31:34.288Z,6892
2018-07-05T08:32:34.495Z,6912
2018-07-05T08:33:34.492Z,6936
2018-07-05T08:34:34.255Z,6972
2018-07-05T08:35:34.527Z,7020
2018-07-05T08:36:34.282Z,7096
2018-07-05T08:37:34.775Z,7216
2018-07-05T08:38:34.538Z,7340
2018-07-05T08:39:34.768Z,7444
2018-07-05T08:40:34.773Z,7512
2018-07-05T08:41:34.282Z,7576
2018-07-05T08:42:34.784Z,7636
2018-07-05T08:43:34.287Z,7692
2018-07-05T08:44:34.563Z,7744
2018-07-05T08:45:34.300Z,7820
2018-07-05T08:46:34.546Z,7872
2018-07-05T08:47:34.565Z,7932
2018-07-05T08:48:34.351Z,7988
2018-07-05T08:49:34.807Z,8044
2018-07-05T08:50:34.822Z,8096
2018-07-05T08:51:34.322Z,8124
2018-07-05T08:52:34.362Z,8136
2018-07-05T08:53:34.844Z,8136
2018-07-05T08:54:34.841Z,8112
2018-07-05T08:55:34.853Z,8076
2018-07-05T08:56:34.861Z,8056
2018-07-05T08:57:34.603Z,8044
2018-07-05T08:58:34.366Z,8040
2018-07-05T08:59:34.876Z,7984
2018-07-05T09:00:34.631Z,7928
2018-07-05T09:01:34.373Z,7856
2018-07-05T09:02:34.886Z,7772
2018-07-05T09:03:34.406Z,7688
2018-07-05T09:04:34.629Z,7592
2018-07-05T09:05:34.655Z,7500
2018-07-05T09:06:34.646Z,7444
2018-07-05T09:07:34.387Z,7400
2018-07-05T09:08:34.411Z,7376
2018-07-05T09:09:34.897Z,7348
2018-07-05T09:10:34.687Z,7328
2018-07-05T09:11:34.671Z,7328
2018-07-05T09:12:34.445Z,7364
2018-07-05T09:13:34.743Z,7396
2018-07-05T09:14:34.416Z,7404
2018-07-05T09:15:34.719Z,7400
2018-07-05T09:16:34.434Z,7420
2018-07-05T09:17:34.708Z,7508
2018-07-05T09:18:34.911Z,7472
2018-07-05T09:19:34.444Z,7512
2018-07-05T09:20:34.446Z,7552
2018-07-05T09:21:34.508Z,7596
2018-07-05T09:22:34.710Z,7660
2018-07-05T09:23:35.273Z,7732
2018-07-05T09:24:34.751Z,7820
2018-07-05T09:25:34.731Z,7900
2018-07-05T09:26:34.471Z,7956
2018-07-05T09:27:34.739Z,7992
2018-07-05T09:28:34.783Z,7980
2018-07-05T09:29:34.501Z,7952
2018-07-05T09:30:34.513Z,7912
2018-07-05T09:31:34.252Z,7860
2018-07-05T09:32:34.499Z,7796
2018-07-05T09:33:34.517Z,7716
2018-07-05T09:34:34.778Z,7624
2018-07-05T09:35:35.039Z,7540
2018-07-05T09:36:34.559Z,7484
2018-07-05T09:37:35.189Z,7456
2018-07-05T09:38:34.288Z,7416
2018-07-05T09:39:34.810Z,7412
2018-07-05T09:40:35.052Z,7428
2018-07-05T09:41:34.547Z,7440
2018-07-05T09:42:34.545Z,7452
2018-07-05T09:43:34.806Z,7464
2018-07-05T09:44:35.061Z,7480
2018-07-05T09:45:34.822Z,7492
2018-07-05T09:46:34.567Z,7520
2018-07-05T09:47:34.579Z,7568
2018-07-05T09:48:34.582Z,7620
2018-07-05T09:49:34.889Z,7628
2018-07-05T09:50:34.587Z,7552
2018-07-05T09:51:34.880Z,7388
2018-07-05T09:52:35.712Z,7124
2018-07-05T09:53:34.599Z,6848
2018-07-05T09:54:34.643Z,6576
2018-07-05T09:55:34.871Z,6280
2018-07-05T09:56:35.113Z,5980
2018-07-05T09:57:35.112Z,5748
2018-07-05T09:58:35.143Z,5612
2018-07-05T09:59:34.629Z,5532
2018-07-05T10:00:35.148Z,5472
2018-07-05T10:01:34.633Z,5412
2018-07-05T10:02:34.885Z,5360
2018-07-05T10:03:35.093Z,5328
2018-07-05T10:04:34.898Z,5324
2018-07-05T10:05:35.157Z,5336
2018-07-05T10:06:34.912Z,5384
2018-07-05T10:07:34.906Z,5468
2018-07-05T10:08:35.179Z,5612
2018-07-05T10:09:34.911Z,5796
2018-07-05T10:10:34.930Z,5984
2018-07-05T10:11:34.924Z,6140
2018-07-05T10:12:34.673Z,6240
2018-07-05T10:13:35.722Z,6296
2018-07-05T10:14:34.946Z,6328
2018-07-05T10:15:34.696Z,6364
2018-07-05T10:16:34.681Z,6404
2018-07-05T10:17:34.697Z,6452
2018-07-05T10:18:34.950Z,6536
2018-07-05T10:19:35.031Z,6652
2018-07-05T10:20:35.234Z,6752
2018-07-05T10:21:34.953Z,6812
2018-07-05T10:22:34.462Z,6812
2018-07-05T10:54:04.562Z,5272
2018-07-05T10:55:04.032Z,5388
2018-07-05T10:56:04.566Z,5492
2018-07-05T10:57:04.574Z,5580
2018-07-05T10:58:04.595Z,5644
2018-07-05T10:59:04.584Z,5672
2018-07-05T11:00:04.568Z,5684
2018-07-05T11:01:04.095Z,5680
2018-07-05T11:02:04.072Z,5668
2018-07-05T11:03:04.592Z,5668
2018-07-05T11:04:04.574Z,5676
2018-07-05T11:05:04.318Z,5692
2018-07-05T11:06:04.307Z,5720
2018-07-05T11:07:04.071Z,5752
2018-07-05T11:08:04.602Z,5780
2018-07-05T11:09:04.330Z,5804
2018-07-05T11:10:04.320Z,5828
2018-07-05T11:11:04.319Z,5860
2018-07-05T11:12:04.333Z,5896
2018-07-05T11:13:04.333Z,5948
2018-07-05T11:14:03.809Z,6008
2018-07-05T11:15:04.101Z,6080
2018-07-05T11:16:04.325Z,6164
2018-07-05T11:17:04.075Z,6256
2018-07-05T11:18:04.078Z,6360
2018-07-05T11:19:04.366Z,6472
2018-07-05T11:20:04.361Z,6596
2018-07-05T11:21:04.263Z,6732
2018-07-05T11:22:04.608Z,6868
2018-07-05T11:23:04.637Z,6996
2018-07-05T11:24:04.368Z,7104
2018-07-05T11:25:04.375Z,7220
2018-07-05T11:26:04.365Z,7332
2018-07-05T11:27:04.378Z,7444
2018-07-05T11:28:04.364Z,7564
2018-07-05T11:29:04.380Z,7696
2018-07-05T11:30:04.376Z,7816
2018-07-05T11:31:04.390Z,7916
2018-07-05T11:32:04.655Z,7996
2018-07-05T11:33:04.397Z,8044
2018-07-05T11:34:04.124Z,8068
2018-07-05T11:35:04.385Z,8076
2018-07-05T11:36:04.426Z,8068
2018-07-05T11:37:04.130Z,8052
2018-07-05T11:38:04.397Z,8028
2018-07-05T11:39:04.177Z,8008
2018-07-05T11:40:04.678Z,7988
2018-07-05T11:41:04.655Z,7956
2018-07-05T11:42:04.152Z,7948
2018-07-05T11:43:04.163Z,7936
2018-07-05T11:44:04.202Z,7912
2018-07-05T11:45:04.456Z,7900
2018-07-05T11:46:04.452Z,7880
2018-07-05T11:47:04.443Z,7868
2018-07-05T11:48:04.553Z,7872
2018-07-05T11:49:04.184Z,7896
2018-07-05T11:50:04.439Z,7948
2018-07-05T11:51:04.547Z,8028
2018-07-05T11:52:04.464Z,8092
2018-07-05T11:53:04.713Z,8116
2018-07-05T11:54:05.256Z,8072
2018-07-05T11:55:04.464Z,7940
2018-07-05T11:56:04.200Z,7776
2018-07-05T11:57:03.975Z,7604
2018-07-05T11:58:04.502Z,7444
2018-07-05T11:59:04.229Z,7264
2018-07-05T12:00:04.252Z,7104
2018-07-05T12:01:04.781Z,6960
2018-07-05T12:02:05.015Z,6884
2018-07-05T12:03:04.732Z,6872
2018-07-05T12:04:04.833Z,6916
2018-07-05T12:05:04.314Z,6964
2018-07-05T12:06:04.503Z,6952
2018-07-05T12:07:04.511Z,6852
2018-07-05T12:08:04.271Z,6780
2018-07-05T12:09:04.269Z,6784
2018-07-05T12:10:04.548Z,6892
2018-07-05T12:11:04.792Z,7176
2018-07-05T12:12:04.283Z,7636
2018-07-05T12:13:04.307Z,8068
2018-07-05T12:14:04.545Z,8428
2018-07-05T12:15:04.284Z,8680
2018-07-05T12:16:04.284Z,8864
2018-07-05T12:17:04.793Z,9056
2018-07-05T12:18:04.546Z,9236
2018-07-05T12:19:04.319Z,9384
2018-07-05T12:20:04.321Z,9492
2018-07-05T12:21:04.050Z,9576
2018-07-05T12:22:04.568Z,9692
2018-07-05T12:23:04.331Z,9848
2018-07-05T12:24:05.135Z,9960
2018-07-05T12:25:04.070Z,9960
2018-07-05T12:26:04.589Z,9880
2018-07-05T12:27:04.849Z,9800
2018-07-05T12:28:04.611Z,9788
2018-07-05T12:29:04.714Z,9820
2018-07-05T12:30:04.623Z,9880
2018-07-05T12:31:04.855Z,9916
2018-07-05T12:32:04.360Z,10024
2018-07-05T12:33:04.617Z,10104
2018-07-05T12:34:04.606Z,10104
2018-07-05T12:35:04.608Z,10020
2018-07-05T12:36:04.631Z,9748
2018-07-05T12:37:04.928Z,9504
2018-07-05T12:38:04.704Z,9428
2018-07-05T12:39:05.222Z,9424
2018-07-05T12:40:04.907Z,9336
2018-07-05T12:41:04.672Z,9092
2018-07-05T12:42:04.933Z,8880
2018-07-05T12:43:04.395Z,8788
2018-07-05T12:44:04.904Z,8772
2018-07-05T12:45:04.402Z,8944
2018-07-05T12:46:04.906Z,9292
2018-07-05T12:47:04.458Z,9568
2018-07-05T12:48:04.922Z,9684
2018-07-05T12:49:04.669Z,9672
2018-07-05T12:50:04.673Z,9584
2018-07-05T12:51:04.928Z,9452
2018-07-05T12:52:05.094Z,9116
2018-07-05T12:53:04.680Z,8660
2018-07-05T12:54:04.689Z,8320
2018-07-05T12:55:04.429Z,7940
2018-07-05T12:56:05.013Z,7504
2018-07-05T12:57:04.967Z,7188
2018-07-05T12:58:04.944Z,7092
2018-07-05T12:59:04.479Z,6956
2018-07-05T13:00:04.488Z,6724
2018-07-05T13:01:04.722Z,6392
2018-07-05T13:02:04.975Z,6084
2018-07-05T13:03:04.966Z,5796
2018-07-05T13:04:04.966Z,5596
2018-07-05T13:05:04.482Z,5540
2018-07-05T13:06:04.983Z,5580
2018-07-05T13:07:04.506Z,5704
2018-07-05T13:08:04.989Z,5736
2018-07-05T13:09:04.997Z,5632
2018-07-05T13:10:04.748Z,5488
2018-07-05T13:11:05.026Z,5396
2018-07-05T13:12:04.758Z,5304
2018-07-05T13:13:04.770Z,5484
2018-07-05T13:14:04.765Z,5688
2018-07-05T13:15:04.516Z,5616
2018-07-05T13:16:05.029Z,5420
2018-07-05T13:17:04.549Z,5212
2018-07-05T13:18:04.544Z,5168
2018-07-05T13:19:04.790Z,5388
2018-07-05T13:20:04.788Z,5932
2018-07-05T13:21:04.801Z,6788
2018-07-05T13:22:04.538Z,7776
2018-07-05T13:23:04.810Z,8420
2018-07-05T13:24:05.358Z,8696
2018-07-05T13:25:05.060Z,8772
2018-07-05T13:26:04.578Z,8796
2018-07-05T13:27:04.557Z,8668
2018-07-05T13:28:04.576Z,8500
2018-07-05T13:29:04.834Z,8348
2018-07-05T13:30:04.843Z,8116
2018-07-05T13:31:04.587Z,7676
2018-07-05T13:32:04.843Z,6860
2018-07-05T13:33:04.997Z,5800
2018-07-05T13:34:04.589Z,4796
2018-07-05T13:35:05.114Z,3944
2018-07-05T13:36:04.862Z,3228
2018-07-05T13:37:05.119Z,2712
2018-07-05T13:38:04.878Z,2264
2018-07-05T13:39:04.871Z,1900
2018-07-05T13:40:04.643Z,1668
2018-07-05T13:41:04.871Z,1596
2018-07-05T13:42:05.134Z,1560
2018-07-05T13:43:04.880Z,1544
2018-07-05T13:44:04.640Z,1504
2018-07-05T13:45:04.901Z,1480
2018-07-05T13:46:04.903Z,1480
2018-07-05T13:47:05.382Z,1512
2018-07-05T13:48:04.893Z,1500
2018-07-05T13:49:05.157Z,1472
2018-07-05T13:50:05.149Z,1540
2018-07-05T13:51:04.962Z,1704
2018-07-05T13:52:05.159Z,2004
2018-07-05T13:53:05.224Z,2368
2018-07-05T13:54:05.405Z,2692
2018-07-05T13:55:04.916Z,3216
2018-07-05T13:56:05.206Z,3704
2018-07-05T13:57:04.991Z,3908
2018-07-05T13:58:05.283Z,4276
2018-07-05T13:59:04.921Z,4884
2018-07-05T14:00:04.684Z,5548
2018-07-05T14:01:04.679Z,5836
2018-07-05T14:02:04.680Z,5964
2018-07-05T14:03:05.191Z,6172
2018-07-05T14:04:05.216Z,6416
2018-07-05T14:05:04.449Z,6692
2018-07-05T14:06:04.947Z,6800
2018-07-05T14:07:05.237Z,6548
2018-07-05T14:08:05.528Z,5816
2018-07-05T14:09:05.016Z,4984
2018-07-05T14:10:04.986Z,4280
2018-07-05T14:11:04.694Z,3888
2018-07-05T14:12:04.975Z,3484
2018-07-05T14:13:04.987Z,3376
2018-07-05T14:14:05.223Z,3632
2018-07-05T14:15:04.971Z,4164
2018-07-05T14:16:05.227Z,4556
2018-07-05T14:17:04.968Z,4800